Westview Chinook — VG3278 — position and weather

sailwx.info

Track history (hours):
 
Tides and Currents Weather Stations Pressure Air Temp Water Temp Dewpoint Dewpoint Depression Visibility Wind Speed Wind Dir Waves Ship Positions

Westview Chinook

Last reported at 2015-Mar-26 18:34 UTC. Time now 2015-Mar-26 19:10 UTC.
Position N 49°11' W 122°59'.

Length 16 m; draft 3.5 m.

Type: Towing. MMSI: 316005622.

Date/timePositionNaut miles runAvg speedWind from/ knotsBaromVisibWave heightAir tempDewpointWater temp
2015-Mar-26 18:34N 49°11' W 122°59'6 6.3
2015-Mar-26 17:33N 49°12' W 123°09'5 4.8
2015-Mar-26 16:34N 49°15' W 123°15'4 4.2
2015-Mar-26 15:34N 49°19' W 123°14'5 5.3
2015-Mar-26 14:34N 49°18' W 123°06'3 2.7
2015-Mar-26 13:33N 49°19' W 123°10'6 5.8
2015-Mar-26 12:34N 49°16' W 123°17'6 6.4
2015-Mar-26 11:34N 49°12' W 123°09'1 1.3
2015-Mar-26 10:34N 49°12' W 123°07'0 0.3
2015-Mar-26 09:33N 49°12' W 123°07'1 1.0
2015-Mar-26 08:34N 49°12' W 123°05'1 1.0
2015-Mar-26 07:33N 49°12' W 123°07'3 3.0
2015-Mar-26 06:33N 49°13' W 123°11'6 5.9
2015-Mar-26 05:33N 49°17' W 123°19'5 5.0
2015-Mar-26 04:33N 49°20' W 123°25'5 5.2
2015-Mar-26 03:33N 49°25' W 123°26'4 0.3
2015-Mar-25 14:31N 49°29' W 123°28'5 4.9
2015-Mar-25 13:33N 49°26' W 123°23'4 3.8
2015-Mar-25 12:34N 49°24' W 123°18'5 4.8
2015-Mar-25 11:33N 49°19' W 123°14'6 5.5
2015-Mar-25 10:33N 49°18' W 123°06'3 3.4
2015-Mar-25 09:33N 49°18' W 123°01'6 5.8
2015-Mar-25 08:34N 49°19' W 123°10'8 8.2
2015-Mar-25 07:34N 49°13' W 123°18'0 0.4
2015-Mar-25 06:33N 49°12' W 123°18'3 2.9
2015-Mar-25 05:34N 49°15' W 123°15'3 3.3
2015-Mar-25 04:33N 49°13' W 123°11'4 3.8
2015-Mar-25 03:34N 49°12' W 123°05'2 1.7
2015-Mar-25 02:33N 49°12' W 123°03'0 0.0
2015-Mar-25 01:33N 49°12' W 123°03'0 0.0
2015-Mar-25 00:33N 49°12' W 123°03'0 0.0
2015-Mar-24 23:33N 49°12' W 123°03'3 3.3
2015-Mar-24 22:33N 49°12' W 123°08'6 5.7
2015-Mar-24 21:33N 49°15' W 123°15'6 6.1
2015-Mar-24 20:34N 49°12' W 123°07'7 6.9
2015-Mar-24 19:33N 49°12' W 122°56'6 6.4
2015-Mar-24 18:33N 49°14' W 122°47'1 0.8
2015-Mar-24 17:32N 49°14' W 122°46'0 0.0
2015-Mar-24 16:33N 49°14' W 122°46'0 0.0
2015-Mar-24 15:31N 49°14' W 122°46'1 0.4
2015-Mar-24 11:33N 49°13' W 122°48'6 6.2
2015-Mar-24 10:33N 49°12' W 122°57'5 4.7
2015-Mar-24 09:33N 49°12' W 123°04'4 4.4
2015-Mar-24 08:33N 49°11' W 122°57'5 5.1
2015-Mar-24 07:34N 49°13' W 122°50'6 5.7
2015-Mar-24 06:34N 49°12' W 122°42'2 1.7
2015-Mar-24 05:33N 49°12' W 122°39'4 3.6
2015-Mar-24 04:33N 49°13' W 122°44'6 5.8
2015-Mar-24 03:33N 49°13' W 122°53'6 6.3
2015-Mar-24 02:33N 49°12' W 123°03'3 3.5
2015-Mar-24 01:33N 49°12' W 123°08'0 0.0
2015-Mar-24 00:33N 49°12' W 123°08'0 0.0
2015-Mar-23 23:33N 49°12' W 123°08'0 0.0
2015-Mar-23 22:34N 49°12' W 123°08'4 3.9
2015-Mar-23 21:33N 49°14' W 123°13'2 1.6
2015-Mar-23 20:33N 49°13' W 123°11'6 6.4
2015-Mar-23 19:33N 49°12' W 123°02'6 5.6
2015-Mar-23 18:33N 49°13' W 122°53'6 6.3
2015-Mar-23 17:33N 49°12' W 122°43'2 1.8
2015-Mar-23 16:33N 49°11' W 122°41'6 5.5
2015-Mar-23 15:33N 49°13' W 122°49'7 7.0
2015-Mar-23 14:33N 49°10' W 122°58'3 2.7
2015-Mar-23 13:33N 49°09' W 123°02'4 4.2
2015-Mar-23 12:33N 49°07' W 123°07'5 4.8
2015-Mar-23 11:33N 49°08' W 123°14'4 4.2
2015-Mar-23 10:33N 49°06' W 123°20'6 5.7
2015-Mar-23 09:33N 49°08' W 123°29'6 5.9
2015-Mar-23 08:33N 49°10' W 123°37'6 5.9
2015-Mar-23 07:33N 49°13' W 123°45'5 5.3
2015-Mar-23 06:33N 49°11' W 123°53'2 1.7
2015-Mar-23 05:32N 49°12' W 123°52'9 9.7
2015-Mar-23 04:33N 49°14' W 123°37'9 9.4
2015-Mar-23 03:33N 49°15' W 123°23'8 8.1
2015-Mar-23 02:33N 49°13' W 123°11'7 7.4
2015-Mar-23 01:33N 49°11' W 122°60'9 9.1
2015-Mar-23 00:33N 49°14' W 122°46'0 0.3
2015-Mar-22 23:29N 49°14' W 122°46'0 0.0
2015-Mar-22 20:32N 49°14' W 122°46'0 0.0
2015-Mar-22 19:33N 49°14' W 122°46'0 0.0
2015-Mar-22 18:33N 49°14' W 122°46'0 0.0
2015-Mar-22 17:33N 49°14' W 122°46'0 0.0
2015-Mar-22 16:33N 49°14' W 122°46'0 0.0
2015-Mar-22 15:33N 49°14' W 122°46'0 0.0
2015-Mar-22 14:33N 49°14' W 122°46'0 0.0
2015-Mar-22 13:33N 49°14' W 122°46'0 0.0
2015-Mar-22 12:33N 49°14' W 122°46'0 0.0
2015-Mar-22 11:31N 49°14' W 122°46'0 0.0
2015-Mar-22 10:32N 49°14' W 122°46'0 0.0
2015-Mar-22 09:31N 49°14' W 122°46'0 0.0
2015-Mar-22 08:27N 49°14' W 122°46'0 0.0
2015-Mar-22 07:29N 49°14' W 122°46'0 0.0
2015-Mar-22 06:32N 49°14' W 122°46'0 0.0
2015-Mar-22 05:33N 49°14' W 122°46'0 0.0
2015-Mar-22 04:33N 49°14' W 122°46'0 0.0
2015-Mar-22 03:33N 49°14' W 122°46'0 0.0
2015-Mar-22 02:33N 49°14' W 122°46'0 0.0
2015-Mar-22 00:16N 49°14' W 122°46'0 0.0
2015-Mar-21 23:08N 49°14' W 122°46'0 0.0
2015-Mar-21 22:33N 49°14' W 122°46'0 0.0
2015-Mar-21 21:33N 49°14' W 122°46'0 0.0
2015-Mar-21 20:32N 49°14' W 122°46'0 0.0
2015-Mar-21 19:30N 49°14' W 122°46'0 0.0
2015-Mar-21 18:33N 49°14' W 122°46'0 0.0
2015-Mar-21 17:32N 49°14' W 122°46'0 0.0
2015-Mar-21 16:33N 49°14' W 122°46'0 0.0
2015-Mar-21 15:33N 49°14' W 122°46'0 0.2
2015-Mar-21 14:33N 49°14' W 122°46'6 6.4
2015-Mar-21 13:33N 49°11' W 122°55'2 1.8
2015-Mar-21 12:33N 49°11' W 122°58'4 4.3
2015-Mar-21 11:33N 49°12' W 123°04'7 6.7
2015-Mar-21 10:33N 49°14' W 123°14'1 0.9
2015-Mar-21 09:32N 49°15' W 123°15'5 5.6
2015-Mar-21 08:33N 49°12' W 123°08'1 0.5
2015-Mar-21 07:33N 49°12' W 123°07'5 5.1
2015-Mar-21 06:33N 49°14' W 123°14'3 2.5
2015-Mar-21 05:33N 49°16' W 123°17'1 1.4
2015-Mar-21 04:33N 49°15' W 123°16'0 0.0
2015-Mar-21 03:34N 49°15' W 123°16'6 5.8
2015-Mar-21 02:34N 49°12' W 123°08'2 1.7
2015-Mar-21 01:33N 49°12' W 123°05'0 0.0
2015-Mar-21 00:33N 49°12' W 123°05'0 0.0
2015-Mar-20 23:33N 49°12' W 123°05'0 0.0
2015-Mar-20 22:33N 49°12' W 123°05'0 0.0
2015-Mar-20 21:33N 49°12' W 123°05'0 0.0
2015-Mar-20 20:33N 49°12' W 123°05'0 0.0
2015-Mar-20 19:33N 49°12' W 123°05'0 0.0
2015-Mar-20 18:33N 49°12' W 123°05'0 0.0
2015-Mar-20 17:33N 49°12' W 123°05'0 0.0
2015-Mar-20 16:34N 49°12' W 123°05'0 0.0
2015-Mar-20 15:33N 49°12' W 123°05'0 0.0
2015-Mar-20 14:33N 49°12' W 123°05'4 2.2
2015-Mar-20 12:33N 49°11' W 122°59'2 2.4
2015-Mar-20 11:33N 49°11' W 122°55'2 2.3
2015-Mar-20 10:33N 49°10' W 122°58'1 1.4
2015-Mar-20 09:34N 49°10' W 122°56'8 7.9
2015-Mar-20 08:33N 49°13' W 122°45'3 3.1
2015-Mar-20 07:33N 49°11' W 122°41'0 0.2
2015-Mar-20 06:33N 49°11' W 122°41'3 3.1
2015-Mar-20 05:32N 49°13' W 122°45'6 5.8
2015-Mar-20 04:34N 49°12' W 122°54'4 3.6
2015-Mar-20 03:33N 49°09' W 122°57'6 5.7
2015-Mar-20 02:34N 49°13' W 122°51'5 4.8
2015-Mar-20 01:33N 49°12' W 122°44'3 2.8
2015-Mar-20 00:33N 49°14' W 122°46'0 0.0
2015-Mar-19 23:30N 49°14' W 122°46'0 0.0
2015-Mar-19 22:33N 49°14' W 122°46'0 0.0
2015-Mar-19 21:28N 49°14' W 122°46'0 0.0
2015-Mar-19 20:29N 49°14' W 122°46'0 0.0
2015-Mar-19 16:33N 49°14' W 122°46'0 0.0
2015-Mar-19 15:32N 49°14' W 122°46'0 0.0
2015-Mar-19 14:33N 49°14' W 122°46'3 2.6
2015-Mar-19 13:33N 49°13' W 122°50'3 2.7
2015-Mar-19 12:32N 49°13' W 122°54'5 4.9
2015-Mar-19 11:34N 49°12' W 123°01'1 0.5
2015-Mar-19 10:34N 49°12' W 123°02'5 4.6
2015-Mar-19 09:33N 49°12' W 122°55'2 2.2
2015-Mar-19 08:33N 49°13' W 122°52'0 0.0
2015-Mar-19 07:33N 49°13' W 122°52'5 4.7
2015-Mar-19 06:33N 49°13' W 122°45'4 4.1
2015-Mar-19 05:33N 49°13' W 122°51'5 5.5
2015-Mar-19 04:33N 49°09' W 122°57'5 5.5
2015-Mar-19 03:33N 49°13' W 122°51'7 6.7
2015-Mar-19 02:33N 49°11' W 122°41'5 5.5
2015-Mar-19 01:33N 49°13' W 122°49'4 3.9
2015-Mar-19 00:33N 49°12' W 122°55'1 0.5
2015-Mar-18 23:33N 49°11' W 122°55'6 6.0
2015-Mar-18 22:33N 49°13' W 122°46'4 4.0
2015-Mar-18 21:33N 49°13' W 122°52'6 5.7
2015-Mar-18 20:33N 49°09' W 122°58'2 2.5
2015-Mar-18 19:33N 49°09' W 123°02'3 2.6
2015-Mar-18 18:33N 49°09' W 122°58'4 3.5
2015-Mar-18 17:33N 49°12' W 122°55'1 1.4
2015-Mar-18 16:33N 49°12' W 122°57'6 5.5
2015-Mar-18 15:32N 49°12' W 123°05'2 1.9
2015-Mar-18 14:33N 49°12' W 123°08'3 3.0
2015-Mar-18 13:33N 49°12' W 123°04'1 0.6
2015-Mar-18 12:34N 49°12' W 123°05'3 2.6
2015-Mar-18 11:34N 49°12' W 123°08'7 6.6
2015-Mar-18 10:34N 49°16' W 123°17'5 5.2
2015-Mar-18 09:34N 49°13' W 123°10'3 3.5
2015-Mar-18 08:34N 49°12' W 123°05'0 0.1
2015-Mar-18 07:33N 49°12' W 123°05'0 0.4
2015-Mar-18 06:34N 49°12' W 123°05'0 0.4
2015-Mar-18 05:34N 49°12' W 123°05'5 5.0
2015-Mar-18 04:34N 49°13' W 123°12'5 4.6
2015-Mar-18 03:34N 49°15' W 123°19'5 5.1
2015-Mar-18 02:34N 49°13' W 123°12'3 3.5
2015-Mar-18 01:33N 49°12' W 123°07'5 4.5
2015-Mar-18 00:34N 49°14' W 123°13'5 4.7
2015-Mar-17 23:34N 49°12' W 123°06'2 2.1
2015-Mar-17 22:34N 49°13' W 123°09'9 8.7
2015-Mar-17 21:33N 49°15' W 123°22'10 9.6
2015-Mar-17 20:33N 49°14' W 123°37'10 9.6
2015-Mar-17 19:34N 49°12' W 123°51'2 1.9
2015-Mar-17 18:33N 49°11' W 123°53'7 6.9
2015-Mar-17 17:33N 49°12' W 123°43'8 7.9
2015-Mar-17 16:33N 49°10' W 123°31'7 7.4
2015-Mar-17 15:34N 49°07' W 123°21'8 8.4
2015-Mar-17 14:34N 49°06' W 123°08'6 5.9
2015-Mar-17 13:33N 49°09' W 123°00'2 2.1
2015-Mar-17 12:33N 49°09' W 122°57'4 4.2
2015-Mar-17 11:33N 49°13' W 122°53'4 4.4
2015-Mar-17 10:33N 49°13' W 122°46'3 3.3
2015-Mar-17 09:33N 49°11' W 122°42'1 0.9
2015-Mar-17 08:33N 49°11' W 122°41'2 2.2
2015-Mar-17 07:33N 49°13' W 122°44'3 3.1
2015-Mar-17 06:33N 49°13' W 122°48'5 5.0
2015-Mar-17 05:33N 49°11' W 122°55'5 4.8
2015-Mar-17 04:34N 49°09' W 123°02'1 0.7
2015-Mar-17 03:33N 49°08' W 123°03'2 2.1
2015-Mar-17 02:33N 49°09' W 122°60'6 5.8
2015-Mar-17 01:33N 49°13' W 122°53'5 4.8
2015-Mar-17 00:33N 49°09' W 122°58'8 7.7
2015-Mar-16 23:33N 49°06' W 123°08'7 7.2
2015-Mar-16 22:33N 49°06' W 123°19'5 5.5
2015-Mar-16 21:33N 49°07' W 123°11'7 6.7
2015-Mar-16 20:33N 49°09' W 123°01'5 5.0
2015-Mar-16 19:33N 49°12' W 122°55'  
Track history (hours):
 
Tides and Currents Weather Stations Pressure Air Temp Water Temp Dewpoint Dewpoint Depression Visibility Wind Speed Wind Dir Waves Ship Positions

Westview Chinook

Last reported at 2015-Mar-26 18:34 UTC. Time now 2015-Mar-26 19:10 UTC.
Position N 49°11' W 122°59'.

Length 16 m; draft 3.5 m.

Type: Towing. MMSI: 316005622.

Date/timePositionNaut miles runAvg speedWind from/ knotsBaromVisibWave heightAir tempDewpointWater temp
2015-Mar-26 18:34N 49°11' W 122°59'6 6.3
2015-Mar-26 17:33N 49°12' W 123°09'5 4.8
2015-Mar-26 16:34N 49°15' W 123°15'4 4.2
2015-Mar-26 15:34N 49°19' W 123°14'5 5.3
2015-Mar-26 14:34N 49°18' W 123°06'3 2.7
2015-Mar-26 13:33N 49°19' W 123°10'6 5.8
2015-Mar-26 12:34N 49°16' W 123°17'6 6.4
2015-Mar-26 11:34N 49°12' W 123°09'1 1.3
2015-Mar-26 10:34N 49°12' W 123°07'0 0.3
2015-Mar-26 09:33N 49°12' W 123°07'1 1.0
2015-Mar-26 08:34N 49°12' W 123°05'1 1.0
2015-Mar-26 07:33N 49°12' W 123°07'3 3.0
2015-Mar-26 06:33N 49°13' W 123°11'6 5.9
2015-Mar-26 05:33N 49°17' W 123°19'5 5.0
2015-Mar-26 04:33N 49°20' W 123°25'5 5.2
2015-Mar-26 03:33N 49°25' W 123°26'4 0.3
2015-Mar-25 14:31N 49°29' W 123°28'5 4.9
2015-Mar-25 13:33N 49°26' W 123°23'4 3.8
2015-Mar-25 12:34N 49°24' W 123°18'5 4.8
2015-Mar-25 11:33N 49°19' W 123°14'6 5.5
2015-Mar-25 10:33N 49°18' W 123°06'3 3.4
2015-Mar-25 09:33N 49°18' W 123°01'6 5.8
2015-Mar-25 08:34N 49°19' W 123°10'8 8.2
2015-Mar-25 07:34N 49°13' W 123°18'0 0.4
2015-Mar-25 06:33N 49°12' W 123°18'3 2.9
2015-Mar-25 05:34N 49°15' W 123°15'3 3.3
2015-Mar-25 04:33N 49°13' W 123°11'4 3.8
2015-Mar-25 03:34N 49°12' W 123°05'2 1.7
2015-Mar-25 02:33N 49°12' W 123°03'0 0.0
2015-Mar-25 01:33N 49°12' W 123°03'0 0.0
2015-Mar-25 00:33N 49°12' W 123°03'0 0.0
2015-Mar-24 23:33N 49°12' W 123°03'3 3.3
2015-Mar-24 22:33N 49°12' W 123°08'6 5.7
2015-Mar-24 21:33N 49°15' W 123°15'6 6.1
2015-Mar-24 20:34N 49°12' W 123°07'7 6.9
2015-Mar-24 19:33N 49°12' W 122°56'6 6.4
2015-Mar-24 18:33N 49°14' W 122°47'1 0.8
2015-Mar-24 17:32N 49°14' W 122°46'0 0.0
2015-Mar-24 16:33N 49°14' W 122°46'0 0.0
2015-Mar-24 15:31N 49°14' W 122°46'1 0.4
2015-Mar-24 11:33N 49°13' W 122°48'6 6.2
2015-Mar-24 10:33N 49°12' W 122°57'5 4.7
2015-Mar-24 09:33N 49°12' W 123°04'4 4.4
2015-Mar-24 08:33N 49°11' W 122°57'5 5.1
2015-Mar-24 07:34N 49°13' W 122°50'6 5.7
2015-Mar-24 06:34N 49°12' W 122°42'2 1.7
2015-Mar-24 05:33N 49°12' W 122°39'4 3.6
2015-Mar-24 04:33N 49°13' W 122°44'6 5.8
2015-Mar-24 03:33N 49°13' W 122°53'6 6.3
2015-Mar-24 02:33N 49°12' W 123°03'3 3.5
2015-Mar-24 01:33N 49°12' W 123°08'0 0.0
2015-Mar-24 00:33N 49°12' W 123°08'0 0.0
2015-Mar-23 23:33N 49°12' W 123°08'0 0.0
2015-Mar-23 22:34N 49°12' W 123°08'4 3.9
2015-Mar-23 21:33N 49°14' W 123°13'2 1.6
2015-Mar-23 20:33N 49°13' W 123°11'6 6.4
2015-Mar-23 19:33N 49°12' W 123°02'6 5.6
2015-Mar-23 18:33N 49°13' W 122°53'6 6.3
2015-Mar-23 17:33N 49°12' W 122°43'2 1.8
2015-Mar-23 16:33N 49°11' W 122°41'6 5.5
2015-Mar-23 15:33N 49°13' W 122°49'7 7.0
2015-Mar-23 14:33N 49°10' W 122°58'3 2.7
2015-Mar-23 13:33N 49°09' W 123°02'4 4.2
2015-Mar-23 12:33N 49°07' W 123°07'5 4.8
2015-Mar-23 11:33N 49°08' W 123°14'4 4.2
2015-Mar-23 10:33N 49°06' W 123°20'6 5.7
2015-Mar-23 09:33N 49°08' W 123°29'6 5.9
2015-Mar-23 08:33N 49°10' W 123°37'6 5.9
2015-Mar-23 07:33N 49°13' W 123°45'5 5.3
2015-Mar-23 06:33N 49°11' W 123°53'2 1.7
2015-Mar-23 05:32N 49°12' W 123°52'9 9.7
2015-Mar-23 04:33N 49°14' W 123°37'9 9.4
2015-Mar-23 03:33N 49°15' W 123°23'8 8.1
2015-Mar-23 02:33N 49°13' W 123°11'7 7.4
2015-Mar-23 01:33N 49°11' W 122°60'9 9.1
2015-Mar-23 00:33N 49°14' W 122°46'0 0.3
2015-Mar-22 23:29N 49°14' W 122°46'0 0.0
2015-Mar-22 20:32N 49°14' W 122°46'0 0.0
2015-Mar-22 19:33N 49°14' W 122°46'0 0.0
2015-Mar-22 18:33N 49°14' W 122°46'0 0.0
2015-Mar-22 17:33N 49°14' W 122°46'0 0.0
2015-Mar-22 16:33N 49°14' W 122°46'0 0.0
2015-Mar-22 15:33N 49°14' W 122°46'0 0.0
2015-Mar-22 14:33N 49°14' W 122°46'0 0.0
2015-Mar-22 13:33N 49°14' W 122°46'0 0.0
2015-Mar-22 12:33N 49°14' W 122°46'0 0.0
2015-Mar-22 11:31N 49°14' W 122°46'0 0.0
2015-Mar-22 10:32N 49°14' W 122°46'0 0.0
2015-Mar-22 09:31N 49°14' W 122°46'0 0.0
2015-Mar-22 08:27N 49°14' W 122°46'0 0.0
2015-Mar-22 07:29N 49°14' W 122°46'0 0.0
2015-Mar-22 06:32N 49°14' W 122°46'0 0.0
2015-Mar-22 05:33N 49°14' W 122°46'0 0.0
2015-Mar-22 04:33N 49°14' W 122°46'0 0.0
2015-Mar-22 03:33N 49°14' W 122°46'0 0.0
2015-Mar-22 02:33N 49°14' W 122°46'0 0.0
2015-Mar-22 00:16N 49°14' W 122°46'0 0.0
2015-Mar-21 23:08N 49°14' W 122°46'0 0.0
2015-Mar-21 22:33N 49°14' W 122°46'0 0.0
2015-Mar-21 21:33N 49°14' W 122°46'0 0.0
2015-Mar-21 20:32N 49°14' W 122°46'0 0.0
2015-Mar-21 19:30N 49°14' W 122°46'0 0.0
2015-Mar-21 18:33N 49°14' W 122°46'0 0.0
2015-Mar-21 17:32N 49°14' W 122°46'0 0.0
2015-Mar-21 16:33N 49°14' W 122°46'0 0.0
2015-Mar-21 15:33N 49°14' W 122°46'0 0.2
2015-Mar-21 14:33N 49°14' W 122°46'6 6.4
2015-Mar-21 13:33N 49°11' W 122°55'2 1.8
2015-Mar-21 12:33N 49°11' W 122°58'4 4.3
2015-Mar-21 11:33N 49°12' W 123°04'7 6.7
2015-Mar-21 10:33N 49°14' W 123°14'1 0.9
2015-Mar-21 09:32N 49°15' W 123°15'5 5.6
2015-Mar-21 08:33N 49°12' W 123°08'1 0.5
2015-Mar-21 07:33N 49°12' W 123°07'5 5.1
2015-Mar-21 06:33N 49°14' W 123°14'3 2.5
2015-Mar-21 05:33N 49°16' W 123°17'1 1.4
2015-Mar-21 04:33N 49°15' W 123°16'0 0.0
2015-Mar-21 03:34N 49°15' W 123°16'6 5.8
2015-Mar-21 02:34N 49°12' W 123°08'2 1.7
2015-Mar-21 01:33N 49°12' W 123°05'0 0.0
2015-Mar-21 00:33N 49°12' W 123°05'0 0.0
2015-Mar-20 23:33N 49°12' W 123°05'0 0.0
2015-Mar-20 22:33N 49°12' W 123°05'0 0.0
2015-Mar-20 21:33N 49°12' W 123°05'0 0.0
2015-Mar-20 20:33N 49°12' W 123°05'0 0.0
2015-Mar-20 19:33N 49°12' W 123°05'0 0.0
2015-Mar-20 18:33N 49°12' W 123°05'0 0.0
2015-Mar-20 17:33N 49°12' W 123°05'0 0.0
2015-Mar-20 16:34N 49°12' W 123°05'0 0.0
2015-Mar-20 15:33N 49°12' W 123°05'0 0.0
2015-Mar-20 14:33N 49°12' W 123°05'4 2.2
2015-Mar-20 12:33N 49°11' W 122°59'2 2.4
2015-Mar-20 11:33N 49°11' W 122°55'2 2.3
2015-Mar-20 10:33N 49°10' W 122°58'1 1.4
2015-Mar-20 09:34N 49°10' W 122°56'8 7.9
2015-Mar-20 08:33N 49°13' W 122°45'3 3.1
2015-Mar-20 07:33N 49°11' W 122°41'0 0.2
2015-Mar-20 06:33N 49°11' W 122°41'3 3.1
2015-Mar-20 05:32N 49°13' W 122°45'6 5.8
2015-Mar-20 04:34N 49°12' W 122°54'4 3.6
2015-Mar-20 03:33N 49°09' W 122°57'6 5.7
2015-Mar-20 02:34N 49°13' W 122°51'5 4.8
2015-Mar-20 01:33N 49°12' W 122°44'3 2.8
2015-Mar-20 00:33N 49°14' W 122°46'0 0.0
2015-Mar-19 23:30N 49°14' W 122°46'0 0.0
2015-Mar-19 22:33N 49°14' W 122°46'0 0.0
2015-Mar-19 21:28N 49°14' W 122°46'0 0.0
2015-Mar-19 20:29N 49°14' W 122°46'0 0.0
2015-Mar-19 16:33N 49°14' W 122°46'0 0.0
2015-Mar-19 15:32N 49°14' W 122°46'0 0.0
2015-Mar-19 14:33N 49°14' W 122°46'3 2.6
2015-Mar-19 13:33N 49°13' W 122°50'3 2.7
2015-Mar-19 12:32N 49°13' W 122°54'5 4.9
2015-Mar-19 11:34N 49°12' W 123°01'1 0.5
2015-Mar-19 10:34N 49°12' W 123°02'5 4.6
2015-Mar-19 09:33N 49°12' W 122°55'2 2.2
2015-Mar-19 08:33N 49°13' W 122°52'0 0.0
2015-Mar-19 07:33N 49°13' W 122°52'5 4.7
2015-Mar-19 06:33N 49°13' W 122°45'4 4.1
2015-Mar-19 05:33N 49°13' W 122°51'5 5.5
2015-Mar-19 04:33N 49°09' W 122°57'5 5.5
2015-Mar-19 03:33N 49°13' W 122°51'7 6.7
2015-Mar-19 02:33N 49°11' W 122°41'5 5.5
2015-Mar-19 01:33N 49°13' W 122°49'4 3.9
2015-Mar-19 00:33N 49°12' W 122°55'1 0.5
2015-Mar-18 23:33N 49°11' W 122°55'6 6.0
2015-Mar-18 22:33N 49°13' W 122°46'4 4.0
2015-Mar-18 21:33N 49°13' W 122°52'6 5.7
2015-Mar-18 20:33N 49°09' W 122°58'2 2.5
2015-Mar-18 19:33N 49°09' W 123°02'3 2.6
2015-Mar-18 18:33N 49°09' W 122°58'4 3.5
2015-Mar-18 17:33N 49°12' W 122°55'1 1.4
2015-Mar-18 16:33N 49°12' W 122°57'6 5.5
2015-Mar-18 15:32N 49°12' W 123°05'2 1.9
2015-Mar-18 14:33N 49°12' W 123°08'3 3.0
2015-Mar-18 13:33N 49°12' W 123°04'1 0.6
2015-Mar-18 12:34N 49°12' W 123°05'3 2.6
2015-Mar-18 11:34N 49°12' W 123°08'7 6.6
2015-Mar-18 10:34N 49°16' W 123°17'5 5.2
2015-Mar-18 09:34N 49°13' W 123°10'3 3.5
2015-Mar-18 08:34N 49°12' W 123°05'0 0.1
2015-Mar-18 07:33N 49°12' W 123°05'0 0.4
2015-Mar-18 06:34N 49°12' W 123°05'0 0.4
2015-Mar-18 05:34N 49°12' W 123°05'5 5.0
2015-Mar-18 04:34N 49°13' W 123°12'5 4.6
2015-Mar-18 03:34N 49°15' W 123°19'5 5.1
2015-Mar-18 02:34N 49°13' W 123°12'3 3.5
2015-Mar-18 01:33N 49°12' W 123°07'5 4.5
2015-Mar-18 00:34N 49°14' W 123°13'5 4.7
2015-Mar-17 23:34N 49°12' W 123°06'2 2.1
2015-Mar-17 22:34N 49°13' W 123°09'9 8.7
2015-Mar-17 21:33N 49°15' W 123°22'10 9.6
2015-Mar-17 20:33N 49°14' W 123°37'10 9.6
2015-Mar-17 19:34N 49°12' W 123°51'2 1.9
2015-Mar-17 18:33N 49°11' W 123°53'7 6.9
2015-Mar-17 17:33N 49°12' W 123°43'8 7.9
2015-Mar-17 16:33N 49°10' W 123°31'7 7.4
2015-Mar-17 15:34N 49°07' W 123°21'8 8.4
2015-Mar-17 14:34N 49°06' W 123°08'6 5.9
2015-Mar-17 13:33N 49°09' W 123°00'2 2.1
2015-Mar-17 12:33N 49°09' W 122°57'4 4.2
2015-Mar-17 11:33N 49°13' W 122°53'4 4.4
2015-Mar-17 10:33N 49°13' W 122°46'3 3.3
2015-Mar-17 09:33N 49°11' W 122°42'1 0.9
2015-Mar-17 08:33N 49°11' W 122°41'2 2.2
2015-Mar-17 07:33N 49°13' W 122°44'3 3.1
2015-Mar-17 06:33N 49°13' W 122°48'5 5.0
2015-Mar-17 05:33N 49°11' W 122°55'5 4.8
2015-Mar-17 04:34N 49°09' W 123°02'1 0.7
2015-Mar-17 03:33N 49°08' W 123°03'2 2.1
2015-Mar-17 02:33N 49°09' W 122°60'6 5.8
2015-Mar-17 01:33N 49°13' W 122°53'5 4.8
2015-Mar-17 00:33N 49°09' W 122°58'8 7.7
2015-Mar-16 23:33N 49°06' W 123°08'7 7.2
2015-Mar-16 22:33N 49°06' W 123°19'5 5.5
2015-Mar-16 21:33N 49°07' W 123°11'7 6.7
2015-Mar-16 20:33N 49°09' W 123°01'5 5.0
2015-Mar-16 19:33N 49°12' W 122°55'  

Dump ship's entire track history